createdAt,value
2022-11-21T00:02:04.260Z,50.33
2022-11-21T00:04:34.111Z,46.57
2022-11-21T00:07:03.001Z,48.60
2022-11-21T00:09:34.351Z,64.47
2022-11-21T00:12:05.385Z,53.17
2022-11-21T00:14:36.010Z,59.30
2022-11-21T00:17:05.493Z,48.53
2022-11-21T00:19:35.625Z,58.47
2022-11-21T00:22:04.917Z,52.80
2022-11-21T00:24:34.109Z,62.30
2022-11-21T00:27:03.691Z,62.13
2022-11-21T00:29:34.334Z,66.83
2022-11-21T00:32:03.120Z,70.43
2022-11-21T00:34:32.237Z,79.43
2022-11-21T00:37:01.552Z,75.50
2022-11-21T00:39:30.843Z,71.30
2022-11-21T00:42:00.109Z,73.10
2022-11-21T00:44:29.483Z,73.73
2022-11-21T00:47:00.606Z,70.07
2022-11-21T00:49:29.605Z,67.20
2022-11-21T00:51:58.472Z,69.67
2022-11-21T00:54:27.860Z,73.10
2022-11-21T00:56:57.421Z,74.97
2022-11-21T00:59:26.744Z,68.63
2022-11-21T01:01:55.979Z,72.10
2022-11-21T01:04:27.217Z,81.60
2022-11-21T01:06:56.469Z,82.47
2022-11-21T01:09:25.617Z,75.90
2022-11-21T01:11:54.749Z,72.60
2022-11-21T01:14:24.065Z,66.63
2022-11-21T01:16:53.476Z,70.50
2022-11-21T01:19:23.710Z,71.50
2022-11-21T01:21:54.941Z,70.60
2022-11-21T01:24:24.488Z,78.47
2022-11-21T01:26:54.750Z,75.20
2022-11-21T01:29:23.939Z,73.83
2022-11-21T01:31:53.001Z,67.53
2022-11-21T01:34:22.165Z,73.03
2022-11-21T01:36:51.440Z,81.90
2022-11-21T01:39:22.310Z,65.30
2022-11-21T01:41:51.776Z,61.20
2022-11-21T01:44:22.734Z,74.93
2022-11-21T01:46:52.829Z,68.10
2022-11-21T01:49:23.955Z,67.03
2022-11-21T01:52:00.175Z,72.37
2022-11-21T01:54:34.591Z,72.17
2022-11-21T01:57:08.172Z,76.20
2022-11-21T01:59:44.617Z,68.33
2022-11-21T02:02:17.347Z,70.70
2022-11-21T02:04:47.491Z,66.70
2022-11-21T02:07:18.383Z,73.10
2022-11-21T02:09:53.718Z,81.03
2022-11-21T02:12:27.247Z,64.03
2022-11-21T02:14:57.628Z,77.43
2022-11-21T02:17:28.733Z,67.10
2022-11-21T02:20:00.119Z,80.57
2022-11-21T02:22:38.899Z,77.53
2022-11-21T02:25:13.835Z,73.20
2022-11-21T02:27:43.215Z,69.80
2022-11-21T02:30:14.061Z,65.20
2022-11-21T02:32:47.149Z,65.13
2022-11-21T02:35:18.343Z,70.10
2022-11-21T02:37:49.533Z,79.40
2022-11-21T02:40:25.826Z,66.87
2022-11-21T02:43:09.341Z,65.00
2022-11-21T02:45:41.925Z,71.73
2022-11-21T02:48:11.441Z,72.70
2022-11-21T02:50:41.197Z,70.47
2022-11-21T02:53:13.005Z,66.10
2022-11-21T02:55:44.718Z,63.87
2022-11-21T02:58:14.144Z,63.17
2022-11-21T03:00:44.262Z,70.57
2022-11-21T03:03:13.323Z,64.80
2022-11-21T03:05:42.778Z,70.60
2022-11-21T03:08:12.018Z,69.10
2022-11-21T03:10:40.944Z,67.13
2022-11-21T03:13:12.526Z,76.50
2022-11-21T03:15:41.972Z,69.97
2022-11-21T03:18:10.971Z,72.53
2022-11-21T03:20:40.288Z,67.43
2022-11-21T03:23:09.685Z,78.70
2022-11-21T03:25:39.145Z,60.93
2022-11-21T03:28:07.945Z,66.03
2022-11-21T03:30:39.086Z,74.57
2022-11-21T03:33:08.326Z,71.33
2022-11-21T03:35:37.517Z,63.87
2022-11-21T03:38:07.102Z,66.60
2022-11-21T03:40:36.235Z,72.77
2022-11-21T03:43:08.351Z,64.10
2022-11-21T03:45:39.310Z,59.80
2022-11-21T03:48:08.804Z,66.97
2022-11-21T03:50:38.338Z,66.30
2022-11-21T03:53:07.564Z,57.03
2022-11-21T03:55:36.505Z,61.03
2022-11-21T03:58:05.664Z,66.27
2022-11-21T04:00:35.118Z,63.47
2022-11-21T04:03:06.005Z,58.27
2022-11-21T04:05:37.160Z,57.50
2022-11-21T04:08:06.644Z,65.57
2022-11-21T04:10:35.885Z,58.40
2022-11-21T04:13:05.759Z,62.60
2022-11-21T04:15:35.226Z,55.93
2022-11-21T04:18:06.155Z,62.10
2022-11-21T04:20:35.110Z,52.07
2022-11-21T04:23:04.215Z,56.53
2022-11-21T04:25:34.093Z,60.37
2022-11-21T04:28:04.488Z,56.90
2022-11-21T04:30:35.431Z,58.97
2022-11-21T04:33:06.688Z,60.33
2022-11-21T04:35:35.975Z,57.20
2022-11-21T04:38:05.115Z,60.47
2022-11-21T04:40:34.114Z,62.93
2022-11-21T04:43:03.068Z,63.13
2022-11-21T04:45:32.653Z,66.40
2022-11-21T04:48:01.897Z,57.23
2022-11-21T04:50:33.439Z,61.27
2022-11-21T04:53:02.712Z,57.57
2022-11-21T04:55:33.845Z,55.07
2022-11-21T04:58:02.923Z,54.40
2022-11-21T05:00:32.186Z,55.77
2022-11-21T05:03:05.864Z,53.87
2022-11-21T05:05:36.632Z,57.10
2022-11-21T05:08:06.392Z,51.43
2022-11-21T05:10:55.896Z,56.30
2022-11-21T05:13:23.927Z,55.33
2022-11-21T05:15:59.550Z,59.90
2022-11-21T05:18:29.070Z,54.03
2022-11-21T05:20:59.926Z,56.73
2022-11-21T05:23:29.157Z,50.70
2022-11-21T05:25:58.243Z,53.60
2022-11-21T05:28:27.651Z,49.00
2022-11-21T05:30:57.178Z,52.87
2022-11-21T05:33:26.834Z,47.07
2022-11-21T05:35:55.867Z,51.13
2022-11-21T05:38:27.664Z,55.70
2022-11-21T05:40:56.795Z,51.27
2022-11-21T05:43:42.914Z,51.90
2022-11-21T05:46:11.827Z,50.30
2022-11-21T05:48:41.151Z,49.60
2022-11-21T05:51:11.114Z,52.50
2022-11-21T05:53:41.649Z,48.30
2022-11-21T05:56:12.943Z,52.50
2022-11-21T05:58:43.042Z,54.93
2022-11-21T06:01:15.072Z,50.07
2022-11-21T06:03:44.043Z,51.13
2022-11-21T06:06:15.314Z,47.83
2022-11-21T06:08:47.767Z,53.33
2022-11-21T06:11:18.764Z,56.57
2022-11-21T06:13:47.939Z,45.87
2022-11-21T06:16:20.085Z,57.13
2022-11-21T06:18:56.811Z,58.63
2022-11-21T06:21:29.771Z,48.73
2022-11-21T06:24:01.395Z,51.83
2022-11-21T06:26:30.695Z,51.30
2022-11-21T06:29:02.649Z,56.60
2022-11-21T06:31:32.734Z,56.47
2022-11-21T06:34:02.233Z,56.93
2022-11-21T06:36:33.677Z,80.33
2022-11-21T06:39:06.507Z,55.30
2022-11-21T06:41:35.850Z,53.47
2022-11-21T06:44:05.306Z,54.87
2022-11-21T06:46:34.682Z,62.33
2022-11-21T06:49:04.503Z,61.77
2022-11-21T06:51:33.765Z,54.47
2022-11-21T06:54:04.787Z,60.43
2022-11-21T06:56:34.618Z,58.07
2022-11-21T06:59:04.278Z,53.43
2022-11-21T07:01:33.595Z,58.13
2022-11-21T07:04:03.083Z,62.87
2022-11-21T07:06:32.287Z,56.80
2022-11-21T07:09:31.674Z,51.57
2022-11-21T07:11:55.841Z,53.33
2022-11-21T07:14:23.478Z,49.90
2022-11-21T07:16:53.818Z,53.13
2022-11-21T07:19:23.615Z,57.57
2022-11-21T07:21:52.829Z,55.20
2022-11-21T07:24:21.943Z,59.90
2022-11-21T07:26:53.313Z,60.70
2022-11-21T07:29:24.424Z,57.60
2022-11-21T07:31:55.307Z,51.17
2022-11-21T07:34:24.674Z,40.07
2022-11-21T07:36:55.780Z,51.33
2022-11-21T07:39:27.040Z,50.10
2022-11-21T07:41:56.215Z,54.30
2022-11-21T07:44:27.061Z,57.80
2022-11-21T07:46:57.324Z,49.30
2022-11-21T07:49:26.757Z,51.63
2022-11-21T07:51:56.157Z,58.70
2022-11-21T07:54:28.780Z,54.67
2022-11-21T07:56:57.817Z,49.57
2022-11-21T07:59:28.698Z,51.90
2022-11-21T08:01:58.037Z,57.30
2022-11-21T08:04:27.582Z,60.53
2022-11-21T08:06:56.742Z,47.87
2022-11-21T08:09:35.979Z,49.30
2022-11-21T08:12:12.358Z,51.43
2022-11-21T08:14:43.513Z,39.83
2022-11-21T08:17:14.325Z,44.70
2022-11-21T08:19:44.901Z,45.10
2022-11-21T08:22:14.983Z,45.90
2022-11-21T08:24:44.375Z,44.50
2022-11-21T08:27:13.581Z,39.50
2022-11-21T08:29:44.799Z,38.00
2022-11-21T08:32:14.655Z,37.13
2022-11-21T08:34:44.312Z,44.10
2022-11-21T08:37:14.146Z,35.60
2022-11-21T08:39:43.516Z,36.27
2022-11-21T08:42:12.678Z,41.90
2022-11-21T08:44:43.538Z,41.63
2022-11-21T08:47:13.056Z,42.73
2022-11-21T08:49:42.789Z,37.13
2022-11-21T08:52:12.799Z,42.57
2022-11-21T08:54:41.893Z,39.17
2022-11-21T08:57:11.431Z,30.43
2022-11-21T08:59:43.452Z,24.77
2022-11-21T09:02:14.224Z,26.70
2022-11-21T09:04:43.570Z,30.67
2022-11-21T09:07:13.863Z,33.23
2022-11-21T09:09:43.330Z,30.23
2022-11-21T09:12:12.702Z,32.77
2022-11-21T09:14:59.084Z,34.17
2022-11-21T09:17:45.132Z,28.87
2022-11-21T09:20:14.514Z,29.83
2022-11-21T09:22:44.007Z,33.53
2022-11-21T09:25:13.358Z,29.33
2022-11-21T09:27:43.243Z,30.90
2022-11-21T09:30:13.968Z,33.00
2022-11-21T09:32:45.298Z,30.87
2022-11-21T09:35:14.898Z,27.83
2022-11-21T09:37:43.911Z,27.37
2022-11-21T09:40:17.250Z,25.63
2022-11-21T09:43:08.222Z,27.77
2022-11-21T09:45:43.185Z,28.40
2022-11-21T09:48:16.294Z,28.17
2022-11-21T09:50:53.639Z,26.53
2022-11-21T09:53:29.076Z,25.90
2022-11-21T09:56:02.313Z,29.33
2022-11-21T09:58:34.716Z,26.13
2022-11-21T10:01:04.188Z,27.70
2022-11-21T10:03:42.105Z,25.03
2022-11-21T10:06:21.151Z,24.67
2022-11-21T10:09:01.015Z,27.53
2022-11-21T10:12:03.557Z,23.43
2022-11-21T10:14:48.238Z,23.10
2022-11-21T10:17:31.708Z,30.27
2022-11-21T10:20:22.585Z,38.17
2022-11-21T10:23:07.923Z,35.97
2022-11-21T10:25:41.522Z,26.30
2022-11-21T10:28:19.865Z,21.63
2022-11-21T10:30:55.105Z,18.80
2022-11-21T10:33:32.478Z,19.07
2022-11-21T10:36:09.287Z,13.57
2022-11-21T10:38:42.936Z,15.60
2022-11-21T10:41:21.974Z,14.93
2022-11-21T10:44:15.915Z,14.23
2022-11-21T10:46:59.333Z,12.47
2022-11-21T10:49:30.824Z,12.07
2022-11-21T10:52:07.755Z,13.03
2022-11-21T10:55:11.598Z,12.07
2022-11-21T10:57:46.005Z,12.93
2022-11-21T11:00:32.448Z,12.70
2022-11-21T11:03:05.899Z,18.60
2022-11-21T11:05:37.583Z,9.00
2022-11-21T11:08:12.891Z,11.50
2022-11-21T11:10:44.240Z,12.97
2022-11-21T11:13:49.163Z,14.57
2022-11-21T11:16:22.186Z,11.30
2022-11-21T11:18:58.823Z,11.97
2022-11-21T11:21:30.281Z,12.13
2022-11-21T11:24:26.617Z,10.43
2022-11-21T11:27:00.393Z,10.87
2022-11-21T11:29:32.175Z,12.40
2022-11-21T11:32:05.030Z,14.23
2022-11-21T11:34:42.347Z,11.07
2022-11-21T11:37:15.788Z,13.13
2022-11-21T11:40:01.080Z,12.90
2022-11-21T11:43:10.244Z,13.67
2022-11-21T11:46:19.997Z,11.67
2022-11-21T11:49:17.178Z,17.47
2022-11-21T11:51:45.247Z,15.10
2022-11-21T11:54:19.906Z,17.97
2022-11-21T11:56:50.993Z,11.17
2022-11-21T11:59:24.385Z,16.57
2022-11-21T12:01:58.509Z,18.70
2022-11-21T12:04:31.454Z,13.50
2022-11-21T12:10:03.338Z,16.67
2022-11-21T12:12:41.342Z,14.70
2022-11-21T12:15:33.342Z,15.70
2022-11-21T12:18:15.022Z,12.10
2022-11-21T12:20:52.775Z,10.87
2022-11-21T12:23:25.161Z,11.97
2022-11-21T12:26:08.648Z,10.03
2022-11-21T12:28:49.668Z,14.67
2022-11-21T12:31:25.784Z,10.73
2022-11-21T12:34:15.892Z,12.47
2022-11-21T12:36:50.167Z,10.03
2022-11-21T12:39:41.654Z,10.93
2022-11-21T12:42:36.229Z,12.40
2022-11-21T12:45:31.020Z,13.00
2022-11-21T12:48:37.930Z,12.43
2022-11-21T12:52:01.132Z,12.13
2022-11-21T12:55:01.063Z,22.53
2022-11-21T12:57:42.307Z,18.27
2022-11-21T13:00:21.030Z,17.40
2022-11-21T13:03:18.048Z,22.87
2022-11-21T13:05:51.061Z,36.73
2022-11-21T13:08:25.454Z,38.63
2022-11-21T13:11:16.946Z,22.73
2022-11-21T13:13:52.582Z,34.33
2022-11-21T13:16:38.082Z,43.00
2022-11-21T13:19:24.671Z,45.10
2022-11-21T13:21:55.562Z,33.40
2022-11-21T13:24:57.960Z,25.67
2022-11-21T13:27:34.994Z,17.47
2022-11-21T13:30:27.855Z,30.70
2022-11-21T13:32:59.871Z,28.20
2022-11-21T13:36:05.981Z,22.60
2022-11-21T13:39:14.403Z,28.00
2022-11-21T13:42:23.899Z,26.23
2022-11-21T13:44:53.480Z,24.00
2022-11-21T13:48:04.260Z,26.93
2022-11-21T13:50:50.630Z,51.60
2022-11-21T13:53:58.424Z,27.67
2022-11-21T13:56:37.203Z,27.67
2022-11-21T13:59:28.971Z,26.33
2022-11-21T14:02:23.123Z,28.43
2022-11-21T14:05:22.814Z,35.33
2022-11-21T14:07:53.672Z,32.53
2022-11-21T14:10:35.123Z,30.37
2022-11-21T14:13:09.551Z,32.73
2022-11-21T14:15:47.437Z,64.07
2022-11-21T14:18:24.147Z,52.93
2022-11-21T14:21:04.864Z,47.57
2022-11-21T14:23:37.972Z,37.00
2022-11-21T14:26:16.385Z,48.97
2022-11-21T14:28:46.138Z,62.27
2022-11-21T14:31:16.433Z,59.97
2022-11-21T14:33:47.422Z,34.77
2022-11-21T14:36:22.022Z,34.17
2022-11-21T14:39:20.966Z,26.37
2022-11-21T14:41:47.142Z,31.57
2022-11-21T14:44:19.387Z,22.27
2022-11-21T14:46:49.753Z,25.63
2022-11-21T14:49:27.429Z,26.23
2022-11-21T14:52:04.978Z,25.73
2022-11-21T14:55:06.154Z,26.10
2022-11-21T14:57:39.937Z,28.13
2022-11-21T15:00:24.595Z,24.67
2022-11-21T15:03:01.634Z,27.93
2022-11-21T15:06:00.717Z,28.07
2022-11-21T15:09:18.338Z,27.53
2022-11-21T15:11:19.881Z,25.27
2022-11-21T15:14:15.404Z,31.30
2022-11-21T15:16:47.186Z,23.30
2022-11-21T15:19:22.885Z,24.80
2022-11-21T15:21:53.777Z,24.07
2022-11-21T15:24:40.561Z,29.07
2022-11-21T15:27:34.784Z,27.67
2022-11-21T15:30:30.028Z,28.87
2022-11-21T15:33:07.556Z,28.20
2022-11-21T15:36:13.156Z,32.17
2022-11-21T15:38:48.747Z,33.70
2022-11-21T15:41:30.251Z,33.93
2022-11-21T15:44:23.792Z,35.50
2022-11-21T15:46:56.422Z,33.93
2022-11-21T15:49:32.924Z,34.30
2022-11-21T15:52:17.937Z,37.63
2022-11-21T15:54:47.334Z,38.50
2022-11-21T15:59:53.765Z,41.80
2022-11-21T16:02:22.587Z,31.63
2022-11-21T16:04:51.625Z,25.33
2022-11-21T16:07:20.763Z,31.17
2022-11-21T16:09:50.486Z,32.40
2022-11-21T16:12:19.644Z,36.53
2022-11-21T16:14:49.139Z,40.17
2022-11-21T16:17:19.674Z,29.90
2022-11-21T16:19:49.545Z,30.07
2022-11-21T16:22:19.210Z,26.20
2022-11-21T16:24:52.598Z,29.47
2022-11-21T16:27:21.330Z,32.13
2022-11-21T16:29:50.864Z,21.90
2022-11-21T16:32:22.020Z,22.43
2022-11-21T16:34:52.113Z,28.00
2022-11-21T16:37:21.490Z,23.67
2022-11-21T16:39:52.872Z,23.57
2022-11-21T16:42:22.498Z,25.77
2022-11-21T16:44:53.153Z,23.60
2022-11-21T16:50:16.754Z,27.80
2022-11-21T16:52:46.533Z,24.07
2022-11-21T16:55:27.190Z,23.03
2022-11-21T16:57:59.750Z,22.87
2022-11-21T17:00:31.239Z,25.77
2022-11-21T17:03:03.827Z,25.33
2022-11-21T17:05:33.192Z,28.00
2022-11-21T17:08:03.337Z,32.50
2022-11-21T17:10:37.236Z,30.23
2022-11-21T17:13:10.037Z,42.57
2022-11-21T17:15:40.267Z,50.90
2022-11-21T17:18:12.385Z,52.00
2022-11-21T17:20:46.138Z,59.00
2022-11-21T17:23:15.881Z,61.30
2022-11-21T17:25:44.635Z,45.93
2022-11-21T17:28:14.001Z,41.50
2022-11-21T17:30:44.684Z,29.17
2022-11-21T17:33:16.056Z,29.23
2022-11-21T17:35:45.618Z,27.97
2022-11-21T17:38:15.057Z,27.63
2022-11-21T17:40:44.431Z,33.23
2022-11-21T17:43:13.876Z,30.57
2022-11-21T17:45:47.035Z,27.43
2022-11-21T17:48:19.895Z,32.30
2022-11-21T17:50:49.396Z,33.63
2022-11-21T17:53:18.839Z,30.13
2022-11-21T17:55:51.599Z,27.97
2022-11-21T17:58:21.200Z,37.97
2022-11-21T18:00:57.370Z,44.43
2022-11-21T18:03:29.106Z,40.77
2022-11-21T18:06:03.261Z,42.37
2022-11-21T18:08:33.095Z,50.50
2022-11-21T18:11:02.872Z,45.83
2022-11-21T18:13:33.443Z,41.57
2022-11-21T18:16:05.178Z,41.43
2022-11-21T18:18:37.373Z,36.47
2022-11-21T18:21:07.721Z,40.23
2022-11-21T18:23:38.033Z,38.97
2022-11-21T18:26:09.916Z,37.33
2022-11-21T18:28:39.713Z,35.40
2022-11-21T18:31:19.165Z,37.90
2022-11-21T18:33:56.821Z,49.57
2022-11-21T18:36:27.504Z,51.47
2022-11-21T18:39:04.842Z,46.23
2022-11-21T18:41:40.569Z,38.70
2022-11-21T18:44:14.603Z,38.57
2022-11-21T18:46:51.005Z,37.20
2022-11-21T18:49:23.169Z,41.10
2022-11-21T18:51:52.682Z,42.70
2022-11-21T18:54:29.427Z,38.70
2022-11-21T18:56:58.620Z,42.10
2022-11-21T18:59:28.937Z,47.00
2022-11-21T19:02:00.376Z,43.37
2022-11-21T19:04:34.138Z,47.50
2022-11-21T19:07:04.907Z,52.80
2022-11-21T19:09:36.332Z,48.37
2022-11-21T19:12:06.394Z,64.50
2022-11-21T19:14:35.452Z,57.77
2022-11-21T19:17:05.440Z,50.00
2022-11-21T19:19:37.006Z,51.43
2022-11-21T19:22:07.010Z,46.17
2022-11-21T19:24:36.114Z,50.87
2022-11-21T19:27:05.798Z,44.77
2022-11-21T19:29:35.210Z,51.83
2022-11-21T19:32:05.144Z,38.70
2022-11-21T19:34:36.781Z,39.90
2022-11-21T19:37:13.747Z,36.07
2022-11-21T19:39:43.944Z,40.70
2022-11-21T19:42:16.801Z,44.13
2022-11-21T19:44:51.248Z,42.37
2022-11-21T19:47:21.131Z,45.30
2022-11-21T19:49:54.749Z,42.73
2022-11-21T19:52:34.024Z,36.03
2022-11-21T19:55:09.354Z,44.60
2022-11-21T19:57:40.578Z,40.87
2022-11-21T20:00:23.013Z,43.50
2022-11-21T20:02:55.833Z,40.83
2022-11-21T20:05:29.102Z,41.87
2022-11-21T20:08:04.935Z,44.23
2022-11-21T20:10:38.376Z,38.67
2022-11-21T20:13:08.192Z,39.30
2022-11-21T20:15:41.131Z,43.33
2022-11-21T20:18:16.659Z,38.77
2022-11-21T20:20:48.014Z,37.73
2022-11-21T20:23:18.519Z,39.53
2022-11-21T20:25:52.714Z,43.40
2022-11-21T20:28:25.458Z,35.50
2022-11-21T20:30:54.852Z,32.90
2022-11-21T20:33:40.775Z,37.67
2022-11-21T20:36:14.819Z,38.20
2022-11-21T20:38:46.497Z,36.97
2022-11-21T20:41:20.339Z,34.47
2022-11-21T20:47:22.266Z,47.03
2022-11-21T20:49:53.686Z,47.77
2022-11-21T20:53:49.548Z,46.57
2022-11-21T20:55:17.222Z,38.17
2022-11-21T20:57:46.947Z,37.00
2022-11-21T21:00:18.364Z,48.57
2022-11-21T21:02:57.358Z,47.97
2022-11-21T21:05:27.311Z,43.03
2022-11-21T21:07:57.991Z,47.37
2022-11-21T21:10:28.193Z,52.87
2022-11-21T21:13:02.277Z,54.00
2022-11-21T21:15:34.335Z,58.03
2022-11-21T21:18:06.346Z,60.43
2022-11-21T21:20:55.417Z,60.07
2022-11-21T21:23:29.157Z,52.03
2022-11-21T21:25:58.362Z,53.60
2022-11-21T21:28:35.464Z,65.20
2022-11-21T21:31:31.534Z,57.63
2022-11-21T21:34:01.501Z,53.77
2022-11-21T21:36:49.546Z,56.00
2022-11-21T21:39:29.106Z,51.30
2022-11-21T21:41:59.048Z,53.57
2022-11-21T21:44:33.011Z,49.60
2022-11-21T21:47:03.061Z,56.97
2022-11-21T21:49:32.941Z,55.83
2022-11-21T21:52:03.944Z,47.87
2022-11-21T21:54:37.428Z,55.03
2022-11-21T21:57:10.381Z,44.00
2022-11-21T21:59:43.536Z,52.03
2022-11-21T22:02:13.993Z,45.93
2022-11-21T22:04:52.245Z,43.40
2022-11-21T22:07:22.511Z,53.07
2022-11-21T22:09:54.328Z,51.33
2022-11-21T22:12:24.285Z,49.57
2022-11-21T22:14:53.431Z,55.67
2022-11-21T22:17:22.402Z,53.07
2022-11-21T22:20:02.253Z,48.40
2022-11-21T22:22:33.746Z,43.33
2022-11-21T22:25:06.678Z,47.00
2022-11-21T22:27:37.057Z,51.00
2022-11-21T22:30:16.138Z,47.33
2022-11-21T22:32:51.562Z,52.23
2022-11-21T22:35:27.430Z,48.03
2022-11-21T22:37:57.131Z,49.93
2022-11-21T22:40:28.314Z,42.83
2022-11-21T22:42:57.846Z,44.87
2022-11-21T22:45:27.547Z,48.80
2022-11-21T22:47:57.065Z,50.13
2022-11-21T22:50:26.447Z,46.20
2022-11-21T22:52:56.099Z,42.53
2022-11-21T22:55:26.915Z,46.37
2022-11-21T22:57:56.905Z,49.43
2022-11-21T23:00:26.172Z,52.47
2022-11-21T23:02:55.655Z,52.43
2022-11-21T23:05:24.987Z,42.73
2022-11-21T23:07:54.220Z,46.70
2022-11-21T23:10:23.641Z,44.63
2022-11-21T23:12:55.204Z,44.40
2022-11-21T23:15:25.091Z,47.63
2022-11-21T23:18:00.621Z,52.07
2022-11-21T23:20:30.638Z,46.77
2022-11-21T23:23:01.425Z,48.17
2022-11-21T23:25:30.716Z,44.90
2022-11-21T23:28:01.641Z,46.40
2022-11-21T23:30:30.912Z,48.47
2022-11-21T23:33:00.563Z,47.90
2022-11-21T23:35:31.269Z,47.27
2022-11-21T23:38:01.387Z,48.73
2022-11-21T23:40:31.861Z,52.27
2022-11-21T23:43:05.424Z,48.40
2022-11-21T23:45:35.020Z,51.43
2022-11-21T23:48:04.421Z,43.70
2022-11-21T23:50:35.071Z,42.07
2022-11-21T23:53:04.467Z,47.07
2022-11-21T23:55:37.226Z,50.90
2022-11-21T23:58:12.147Z,57.80
